sensor_id;sensor_type;location;lat;lon;timestamp;pressure;altitude;pressure_sealevel;temperature;humidity
54172;BME280;40076;52.354;4.970;2023-01-30T00:01:55;101705.22;;;8.00;100.00
54172;BME280;40076;52.354;4.970;2023-01-30T00:04:20;101682.59;;;8.01;100.00
54172;BME280;40076;52.354;4.970;2023-01-30T00:06:46;101682.31;;;8.03;100.00
54172;BME280;40076;52.354;4.970;2023-01-30T00:09:12;101686.63;;;8.04;100.00
54172;BME280;40076;52.354;4.970;2023-01-30T00:11:44;101679.63;;;8.03;100.00
54172;BME280;40076;52.354;4.970;2023-01-30T00:14:14;101679.34;;;8.04;100.00
54172;BME280;40076;52.354;4.970;2023-01-30T00:16:42;101689.03;;;8.05;100.00
54172;BME280;40076;52.354;4.970;2023-01-30T00:19:07;101671.28;;;8.04;100.00
54172;BME280;40076;52.354;4.970;2023-01-30T00:21:33;101662.66;;;8.07;100.00
54172;BME280;40076;52.354;4.970;2023-01-30T00:23:58;101666.94;;;8.08;100.00
54172;BME280;40076;52.354;4.970;2023-01-30T00:26:25;101669.63;;;8.08;100.00
54172;BME280;40076;52.354;4.970;2023-01-30T00:28:53;101652.38;;;8.09;100.00
54172;BME280;40076;52.354;4.970;2023-01-30T00:31:19;101654.78;;;8.11;100.00
54172;BME280;40076;52.354;4.970;2023-01-30T00:33:44;101648.31;;;8.12;100.00
54172;BME280;40076;52.354;4.970;2023-01-30T00:36:12;101657.47;;;8.11;100.00
54172;BME280;40076;52.354;4.970;2023-01-30T00:38:41;101650.50;;;8.10;100.00
54172;BME280;40076;52.354;4.970;2023-01-30T00:41:07;101641.06;;;8.12;100.00
54172;BME280;40076;52.354;4.970;2023-01-30T00:43:39;101637.56;;;8.12;100.00
54172;BME280;40076;52.354;4.970;2023-01-30T00:46:28;101637.56;;;8.12;100.00
54172;BME280;40076;52.354;4.970;2023-01-30T00:49:13;101617.63;;;8.13;100.00
54172;BME280;40076;52.354;4.970;2023-01-30T00:51:39;101610.38;;;8.13;100.00
54172;BME280;40076;52.354;4.970;2023-01-30T00:54:13;101610.09;;;8.15;100.00
54172;BME280;40076;52.354;4.970;2023-01-30T00:56:41;101592.31;;;8.14;100.00
54172;BME280;40076;52.354;4.970;2023-01-30T00:59:16;101588.56;;;8.15;100.00
54172;BME280;40076;52.354;4.970;2023-01-30T01:01:44;101582.38;;;8.14;100.00
54172;BME280;40076;52.354;4.970;2023-01-30T01:04:12;101583.16;;;8.15;100.00
54172;BME280;40076;52.354;4.970;2023-01-30T01:06:44;101589.63;;;8.14;100.00
54172;BME280;40076;52.354;4.970;2023-01-30T01:09:13;101587.75;;;8.14;100.00
54172;BME280;40076;52.354;4.970;2023-01-30T01:11:38;101582.09;;;8.16;100.00
54172;BME280;40076;52.354;4.970;2023-01-30T01:14:05;101577.78;;;8.15;100.00
54172;BME280;40076;52.354;4.970;2023-01-30T01:16:33;101583.16;;;8.15;100.00
54172;BME280;40076;52.354;4.970;2023-01-30T01:19:02;101591.75;;;8.17;100.00
54172;BME280;40076;52.354;4.970;2023-01-30T01:21:28;101589.03;;;8.17;100.00
54172;BME280;40076;52.354;4.970;2023-01-30T01:23:58;101584.78;;;8.16;100.00
54172;BME280;40076;52.354;4.970;2023-01-30T01:26:24;101581.28;;;8.16;100.00
54172;BME280;40076;52.354;4.970;2023-01-30T01:28:56;101586.66;;;8.16;100.00
54172;BME280;40076;52.354;4.970;2023-01-30T01:31:22;101578.59;;;8.16;100.00
54172;BME280;40076;52.354;4.970;2023-01-30T01:33:48;101586.66;;;8.16;100.00
54172;BME280;40076;52.354;4.970;2023-01-30T01:36:17;101571.59;;;8.14;100.00
54172;BME280;40076;52.354;4.970;2023-01-30T01:38:45;101565.94;;;8.16;100.00
54172;BME280;40076;52.354;4.970;2023-01-30T01:41:15;101565.94;;;8.16;100.00
54172;BME280;40076;52.354;4.970;2023-01-30T01:46:56;101575.09;;;8.15;100.00
54172;BME280;40076;52.354;4.970;2023-01-30T01:49:26;101560.03;;;8.14;100.00
54172;BME280;40076;52.354;4.970;2023-01-30T01:54:58;101579.16;;;8.12;100.00
54172;BME280;40076;52.354;4.970;2023-01-30T01:57:34;101563.00;;;8.12;100.00
54172;BME280;40076;52.354;4.970;2023-01-30T02:00:26;101569.47;;;8.11;100.00
54172;BME280;40076;52.354;4.970;2023-01-30T02:02:57;101569.72;;;8.10;100.00
54172;BME280;40076;52.354;4.970;2023-01-30T02:05:32;101570.81;;;8.09;100.00
54172;BME280;40076;52.354;4.970;2023-01-30T02:08:02;101552.50;;;8.11;100.00
54172;BME280;40076;52.354;4.970;2023-01-30T02:10:39;101564.06;;;8.11;100.00
54172;BME280;40076;52.354;4.970;2023-01-30T02:13:17;101549.00;;;8.10;100.00
54172;BME280;40076;52.354;4.970;2023-01-30T02:15:45;101562.75;;;8.09;100.00
54172;BME280;40076;52.354;4.970;2023-01-30T02:18:14;101557.34;;;8.09;100.00
54172;BME280;40076;52.354;4.970;2023-01-30T02:45:51;101573.47;;;8.14;100.00
54172;BME280;40076;52.354;4.970;2023-01-30T02:48:34;101566.50;;;8.13;100.00
54172;BME280;40076;52.354;4.970;2023-01-30T02:51:06;101566.50;;;8.13;100.00
54172;BME280;40076;52.354;4.970;2023-01-30T02:53:35;101556.25;;;8.15;100.00
54172;BME280;40076;52.354;4.970;2023-01-30T02:56:02;101564.81;;;8.17;100.00
54172;BME280;40076;52.354;4.970;2023-01-30T02:58:30;101552.47;;;8.16;100.00
54172;BME280;40076;52.354;4.970;2023-01-30T03:01:19;101548.09;;;8.20;100.00
54172;BME280;40076;52.354;4.970;2023-01-30T03:04:08;101551.31;;;8.22;100.00
54172;BME280;40076;52.354;4.970;2023-01-30T03:06:57;101543.53;;;8.21;100.00
54172;BME280;40076;52.354;4.970;2023-01-30T03:12:26;101533.56;;;8.21;100.00
54172;BME280;40076;52.354;4.970;2023-01-30T03:14:59;101536.78;;;8.23;100.00
54172;BME280;40076;52.354;4.970;2023-01-30T03:17:28;101531.09;;;8.25;100.00
54172;BME280;40076;52.354;4.970;2023-01-30T03:19:57;101525.16;;;8.28;100.00
54172;BME280;40076;52.354;4.970;2023-01-30T03:22:23;101533.22;;;8.28;100.00
54172;BME280;40076;52.354;4.970;2023-01-30T03:24:50;101538.06;;;8.31;100.00
54172;BME280;40076;52.354;4.970;2023-01-30T03:27:18;101542.34;;;8.32;100.00
54172;BME280;40076;52.354;4.970;2023-01-30T03:29:43;101525.63;;;8.35;100.00
54172;BME280;40076;52.354;4.970;2023-01-30T03:32:09;101525.91;;;8.33;100.00
54172;BME280;40076;52.354;4.970;2023-01-30T03:34:34;101525.06;;;8.38;100.00
54172;BME280;40076;52.354;4.970;2023-01-30T03:37:03;101529.38;;;8.39;100.00
54172;BME280;40076;52.354;4.970;2023-01-30T03:39:29;101530.66;;;8.41;100.00
54172;BME280;40076;52.354;4.970;2023-01-30T03:41:55;101518.28;;;8.40;100.00
54172;BME280;40076;52.354;4.970;2023-01-30T03:44:20;101516.91;;;8.43;100.00
54172;BME280;40076;52.354;4.970;2023-01-30T03:46:46;101515.84;;;8.44;100.00
54172;BME280;40076;52.354;4.970;2023-01-30T03:49:11;101516.63;;;8.44;100.00
54172;BME280;40076;52.354;4.970;2023-01-30T03:51:37;101527.41;;;8.44;100.00
54172;BME280;40076;52.354;4.970;2023-01-30T03:54:05;101515.75;;;8.49;100.00
54172;BME280;40076;52.354;4.970;2023-01-30T03:56:30;101510.38;;;8.49;100.00
54172;BME280;40076;52.354;4.970;2023-01-30T03:58:58;101511.72;;;8.51;100.00
54172;BME280;40076;52.354;4.970;2023-01-30T04:01:24;101539.72;;;8.50;100.00
54172;BME280;40076;52.354;4.970;2023-01-30T04:03:49;101528.66;;;8.52;100.00
54172;BME280;40076;52.354;4.970;2023-01-30T04:06:14;101526.50;;;8.54;100.00
54172;BME280;40076;52.354;4.970;2023-01-30T04:08:43;101514.13;;;8.53;100.00
54172;BME280;40076;52.354;4.970;2023-01-30T04:11:08;101520.31;;;8.54;100.00
54172;BME280;40076;52.354;4.970;2023-01-30T04:13:36;101532.97;;;8.53;100.00
54172;BME280;40076;52.354;4.970;2023-01-30T04:16:24;101531.88;;;8.54;100.00
54172;BME280;40076;52.354;4.970;2023-01-30T04:18:53;101518.09;;;8.56;100.00
54172;BME280;40076;52.354;4.970;2023-01-30T04:21:19;101518.63;;;8.58;100.00
54172;BME280;40076;52.354;4.970;2023-01-30T04:23:44;101529.13;;;8.59;100.00
54172;BME280;40076;52.354;4.970;2023-01-30T04:26:13;101529.13;;;8.59;100.00
54172;BME280;40076;52.354;4.970;2023-01-30T04:28:44;101540.41;;;8.61;100.00
54172;BME280;40076;52.354;4.970;2023-01-30T04:31:13;101527.75;;;8.62;100.00
54172;BME280;40076;52.354;4.970;2023-01-30T04:33:41;101532.34;;;8.61;100.00
54172;BME280;40076;52.354;4.970;2023-01-30T04:36:12;101521.25;;;8.63;100.00
54172;BME280;40076;52.354;4.970;2023-01-30T04:38:46;101525.06;;;8.62;100.00
54172;BME280;40076;52.354;4.970;2023-01-30T04:41:17;101523.44;;;8.61;100.00
54172;BME280;40076;52.354;4.970;2023-01-30T04:43:42;101528.84;;;8.61;100.00
54172;BME280;40076;52.354;4.970;2023-01-30T04:46:15;101518.88;;;8.61;100.00
54172;BME280;40076;52.354;4.970;2023-01-30T04:48:44;101522.66;;;8.60;100.00
54172;BME280;40076;52.354;4.970;2023-01-30T04:51:12;101528.03;;;8.60;100.00
54172;BME280;40076;52.354;4.970;2023-01-30T04:53:38;101545.84;;;8.56;100.00
54172;BME280;40076;52.354;4.970;2023-01-30T04:56:11;101528.03;;;8.60;100.00
54172;BME280;40076;52.354;4.970;2023-01-30T04:58:37;101525.63;;;8.59;100.00
54172;BME280;40076;52.354;4.970;2023-01-30T05:01:24;101534.28;;;8.56;100.00
54172;BME280;40076;52.354;4.970;2023-01-30T05:03:53;101531.56;;;8.56;100.00
54172;BME280;40076;52.354;4.970;2023-01-30T05:06:20;101536.97;;;8.56;100.00
54172;BME280;40076;52.354;4.970;2023-01-30T05:08:50;101537.03;;;8.50;100.00
54172;BME280;40076;52.354;4.970;2023-01-30T05:11:16;101532.16;;;8.52;100.00
54172;BME280;40076;52.354;4.970;2023-01-30T05:13:41;101527.34;;;8.49;100.00
54172;BME280;40076;52.354;4.970;2023-01-30T05:16:09;101521.16;;;8.49;100.00
54172;BME280;40076;52.354;4.970;2023-01-30T05:18:34;101533.81;;;8.48;100.00
54172;BME280;40076;52.354;4.970;2023-01-30T05:21:14;101532.72;;;8.49;100.00
54172;BME280;40076;52.354;4.970;2023-01-30T05:23:43;101540.06;;;8.44;100.00
54172;BME280;40076;52.354;4.970;2023-01-30T05:26:13;101531.53;;;8.37;100.00
54172;BME280;40076;52.354;4.970;2023-01-30T05:28:39;101528.25;;;8.40;100.00
54172;BME280;40076;52.354;4.970;2023-01-30T05:31:07;101557.13;;;8.34;100.00
54172;BME280;40076;52.354;4.970;2023-01-30T05:33:33;101544.75;;;8.33;100.00
54172;BME280;40076;52.354;4.970;2023-01-30T05:35:58;101559.88;;;8.29;100.00
54172;BME280;40076;52.354;4.970;2023-01-30T05:38:24;101560.66;;;8.30;100.00
54172;BME280;40076;52.354;4.970;2023-01-30T05:41:06;101548.56;;;8.27;100.00
54172;BME280;40076;52.354;4.970;2023-01-30T05:43:33;101540.78;;;8.26;100.00
54172;BME280;40076;52.354;4.970;2023-01-30T05:46:04;101549.19;;;8.19;100.00
54172;BME280;40076;52.354;4.970;2023-01-30T05:48:30;101548.91;;;8.21;100.00
54172;BME280;40076;52.354;4.970;2023-01-30T05:50:57;101550.00;;;8.20;100.00
54172;BME280;40076;52.354;4.970;2023-01-30T05:53:31;101547.84;;;8.22;100.00
54172;BME280;40076;52.354;4.970;2023-01-30T05:55:59;101544.91;;;8.18;100.00
54172;BME280;40076;52.354;4.970;2023-01-30T05:58:28;101553.56;;;8.15;100.00
54172;BME280;40076;52.354;4.970;2023-01-30T06:01:04;101545.47;;;8.15;100.00
54172;BME280;40076;52.354;4.970;2023-01-30T06:03:30;101559.22;;;8.13;100.00
54172;BME280;40076;52.354;4.970;2023-01-30T06:06:00;101567.84;;;8.10;100.00
54172;BME280;40076;52.354;4.970;2023-01-30T06:08:26;101570.53;;;8.10;100.00
54172;BME280;40076;52.354;4.970;2023-01-30T06:10:54;101558.16;;;8.09;100.00
54172;BME280;40076;52.354;4.970;2023-01-30T06:13:23;101567.34;;;8.08;100.00
54172;BME280;40076;52.354;4.970;2023-01-30T06:15:49;101600.44;;;8.09;100.00
54172;BME280;40076;52.354;4.970;2023-01-30T06:18:14;101591.38;;;8.00;100.00
54172;BME280;40076;52.354;4.970;2023-01-30T06:20:39;101577.34;;;8.03;100.00
54172;BME280;40076;52.354;4.970;2023-01-30T06:23:08;101578.94;;;8.04;100.00
54172;BME280;40076;52.354;4.970;2023-01-30T06:25:33;101576.84;;;8.01;100.00
54172;BME280;40076;52.354;4.970;2023-01-30T06:27:59;101576.03;;;8.00;100.00
54172;BME280;40076;52.354;4.970;2023-01-30T06:30:24;101564.50;;;7.95;100.00
54172;BME280;40076;52.354;4.970;2023-01-30T06:32:50;101582.25;;;7.96;100.00
54172;BME280;40076;52.354;4.970;2023-01-30T06:35:15;101569.06;;;7.94;100.00
54172;BME280;40076;52.354;4.970;2023-01-30T06:37:44;101567.78;;;7.92;100.00
54172;BME280;40076;52.354;4.970;2023-01-30T06:40:13;101557.50;;;7.94;100.00
54172;BME280;40076;52.354;4.970;2023-01-30T06:42:43;101566.16;;;7.91;100.00
54172;BME280;40076;52.354;4.970;2023-01-30T06:45:09;101566.97;;;7.91;100.00
54172;BME280;40076;52.354;4.970;2023-01-30T06:47:46;101568.59;;;7.87;100.00
54172;BME280;40076;52.354;4.970;2023-01-30T06:50:13;101578.28;;;7.88;100.00
54172;BME280;40076;52.354;4.970;2023-01-30T06:52:44;101587.44;;;7.87;100.00
54172;BME280;40076;52.354;4.970;2023-01-30T06:55:22;101574.84;;;7.83;100.00
54172;BME280;40076;52.354;4.970;2023-01-30T06:58:06;101586.63;;;7.87;100.00
54172;BME280;40076;52.354;4.970;2023-01-30T07:00:32;101582.63;;;7.84;100.00
54172;BME280;40076;52.354;4.970;2023-01-30T07:03:02;101578.88;;;7.85;100.00
54172;BME280;40076;52.354;4.970;2023-01-30T07:15:22;101617.13;;;7.77;100.00
54172;BME280;40076;52.354;4.970;2023-01-30T07:32:32;101617.75;;;7.64;100.00
54172;BME280;40076;52.354;4.970;2023-01-30T07:35:44;101619.63;;;7.68;100.00
54172;BME280;40076;52.354;4.970;2023-01-30T07:42:11;101616.94;;;7.68;100.00
54172;BME280;40076;52.354;4.970;2023-01-30T07:44:36;101597.81;;;7.70;100.00
54172;BME280;40076;52.354;4.970;2023-01-30T07:50:49;101633.06;;;7.68;100.00
54172;BME280;40076;52.354;4.970;2023-01-30T07:53:15;101618.81;;;7.68;100.00
54172;BME280;40076;52.354;4.970;2023-01-30T07:55:42;101617.19;;;7.67;100.00
54172;BME280;40076;52.354;4.970;2023-01-30T07:58:11;101631.44;;;7.67;100.00
54172;BME280;40076;52.354;4.970;2023-01-30T08:00:54;101612.91;;;7.66;100.00
54172;BME280;40076;52.354;4.970;2023-01-30T08:07:19;101621.50;;;7.63;100.00
54172;BME280;40076;52.354;4.970;2023-01-30T08:16:55;101627.69;;;7.63;100.00
54172;BME280;40076;52.354;4.970;2023-01-30T08:26:39;101673.69;;;7.67;100.00
54172;BME280;40076;52.354;4.970;2023-01-30T08:32:42;101669.34;;;7.71;100.00
54172;BME280;40076;52.354;4.970;2023-01-30T08:35:08;101672.28;;;7.74;100.00
54172;BME280;40076;52.354;4.970;2023-01-30T08:37:55;101694.09;;;7.73;100.00
54172;BME280;40076;52.354;4.970;2023-01-30T08:41:14;101667.19;;;7.73;100.00
54172;BME280;40076;52.354;4.970;2023-01-30T08:44:10;101675.50;;;7.77;100.00
54172;BME280;40076;52.354;4.970;2023-01-30T08:46:38;101666.38;;;7.78;100.00
54172;BME280;40076;52.354;4.970;2023-01-30T08:56:02;101703.47;;;7.81;100.00
54172;BME280;40076;52.354;4.970;2023-01-30T08:58:30;101698.66;;;7.78;100.00
54172;BME280;40076;52.354;4.970;2023-01-30T09:01:03;101699.69;;;7.82;100.00
54172;BME280;40076;52.354;4.970;2023-01-30T09:04:16;101701.84;;;7.85;100.00
54172;BME280;40076;52.354;4.970;2023-01-30T09:09:42;101714.72;;;7.88;100.00
54172;BME280;40076;52.354;4.970;2023-01-30T09:12:07;101718.78;;;7.85;100.00
54172;BME280;40076;52.354;4.970;2023-01-30T09:14:32;101724.41;;;7.89;100.00
54172;BME280;40076;52.354;4.970;2023-01-30T09:16:58;101728.16;;;7.88;100.00
54172;BME280;40076;52.354;4.970;2023-01-30T09:19:24;101716.84;;;7.91;100.00
54172;BME280;40076;52.354;4.970;2023-01-30T09:21:51;101717.09;;;7.94;100.00
54172;BME280;40076;52.354;4.970;2023-01-30T09:24:17;101731.88;;;7.97;100.00
54172;BME280;40076;52.354;4.970;2023-01-30T09:26:43;101731.59;;;7.98;100.00
54172;BME280;40076;52.354;4.970;2023-01-30T09:29:13;101735.91;;;7.99;100.00
54172;BME280;40076;52.354;4.970;2023-01-30T09:31:39;101761.22;;;7.98;100.00
54172;BME280;40076;52.354;4.970;2023-01-30T09:34:04;101760.94;;;8.00;100.00
54172;BME280;40076;52.354;4.970;2023-01-30T09:36:33;101761.22;;;7.98;100.00
54172;BME280;40076;52.354;4.970;2023-01-30T09:38:58;101759.06;;;8.00;100.00
54172;BME280;40076;52.354;4.970;2023-01-30T09:44:22;101773.88;;;7.98;100.00
54172;BME280;40076;52.354;4.970;2023-01-30T09:47:12;101769.50;;;8.02;100.00
54172;BME280;40076;52.354;4.970;2023-01-30T09:49:59;101766.31;;;8.00;100.00
54172;BME280;40076;52.354;4.970;2023-01-30T09:55:15;101787.03;;;7.99;100.00
54172;BME280;40076;52.354;4.970;2023-01-30T09:57:46;101783.28;;;8.00;100.00
54172;BME280;40076;52.354;4.970;2023-01-30T10:06:01;101791.84;;;8.02;100.00
54172;BME280;40076;52.354;4.970;2023-01-30T10:08:58;101787.56;;;8.01;100.00
54172;BME280;40076;52.354;4.970;2023-01-30T10:12:02;101791.84;;;8.02;100.00
54172;BME280;40076;52.354;4.970;2023-01-30T10:22:30;101804.50;;;8.07;100.00
54172;BME280;40076;52.354;4.970;2023-01-30T10:30:32;101796.66;;;8.10;100.00
54172;BME280;40076;52.354;4.970;2023-01-30T10:33:14;101810.13;;;8.10;100.00
54172;BME280;40076;52.354;4.970;2023-01-30T10:35:42;101792.06;;;8.11;100.00
54172;BME280;40076;52.354;4.970;2023-01-30T10:38:59;101808.22;;;8.11;100.00
54172;BME280;40076;52.354;4.970;2023-01-30T10:43:59;101808.22;;;8.11;100.00
54172;BME280;40076;52.354;4.970;2023-01-30T10:55:01;101815.19;;;8.22;100.00
54172;BME280;40076;52.354;4.970;2023-01-30T11:03:07;101821.84;;;8.30;100.00
54172;BME280;40076;52.354;4.970;2023-01-30T11:05:58;101827.78;;;8.32;100.00
54172;BME280;40076;52.354;4.970;2023-01-30T11:08:30;101822.13;;;8.33;100.00
54172;BME280;40076;52.354;4.970;2023-01-30T11:10:56;101808.16;;;8.31;100.00
54172;BME280;40076;52.354;4.970;2023-01-30T11:13:27;101805.47;;;8.31;100.00
54172;BME280;40076;52.354;4.970;2023-01-30T11:15:57;101817.28;;;8.35;100.00
54172;BME280;40076;52.354;4.970;2023-01-30T11:18:24;101818.59;;;8.38;100.00
54172;BME280;40076;52.354;4.970;2023-01-30T11:20:59;101805.16;;;8.38;100.00
54172;BME280;40076;52.354;4.970;2023-01-30T11:23:40;101807.53;;;8.39;100.00
54172;BME280;40076;52.354;4.970;2023-01-30T11:26:35;101815.91;;;8.38;100.00
54172;BME280;40076;52.354;4.970;2023-01-30T11:29:15;101821.31;;;8.38;100.00
54172;BME280;40076;52.354;4.970;2023-01-30T11:31:48;101831.53;;;8.36;100.00
54172;BME280;40076;52.354;4.970;2023-01-30T11:34:16;101821.00;;;8.39;100.00
54172;BME280;40076;52.354;4.970;2023-01-30T11:36:42;101833.09;;;8.42;100.00
54172;BME280;40076;52.354;4.970;2023-01-30T11:41:56;101826.91;;;8.41;100.00
54172;BME280;40076;52.354;4.970;2023-01-30T11:44:27;101850.34;;;8.41;100.00
54172;BME280;40076;52.354;4.970;2023-01-30T11:46:53;101846.03;;;8.45;100.00
54172;BME280;40076;52.354;4.970;2023-01-30T11:49:19;101854.91;;;8.45;100.00
54172;BME280;40076;52.354;4.970;2023-01-30T11:51:47;101860.56;;;8.44;100.00
54172;BME280;40076;52.354;4.970;2023-01-30T11:54:26;101851.66;;;8.48;100.00
54172;BME280;40076;52.354;4.970;2023-01-30T11:56:54;101839.78;;;8.49;100.00
54172;BME280;40076;52.354;4.970;2023-01-30T11:59:33;101827.94;;;8.50;100.00
54172;BME280;40076;52.354;4.970;2023-01-30T12:02:20;101835.75;;;8.52;100.00
54172;BME280;40076;52.354;4.970;2023-01-30T12:04:51;101846.53;;;8.52;100.00
54172;BME280;40076;52.354;4.970;2023-01-30T12:07:27;101839.75;;;8.55;100.00
54172;BME280;40076;52.354;4.970;2023-01-30T12:09:55;101853.22;;;8.55;100.00
54172;BME280;40076;52.354;4.970;2023-01-30T12:14:53;101843.50;;;8.59;100.00
54172;BME280;40076;52.354;4.970;2023-01-30T12:17:51;101856.97;;;8.59;100.00
54172;BME280;40076;52.354;4.970;2023-01-30T12:20:29;101857.81;;;8.54;100.00
54172;BME280;40076;52.354;4.970;2023-01-30T12:23:16;101856.44;;;8.57;100.00
54172;BME280;40076;52.354;4.970;2023-01-30T12:28:21;101843.78;;;8.57;100.00
54172;BME280;40076;52.354;4.970;2023-01-30T12:30:54;101868.84;;;8.58;100.00
54172;BME280;40076;52.354;4.970;2023-01-30T12:33:25;101867.75;;;8.59;100.00
54172;BME280;40076;52.354;4.970;2023-01-30T12:47:18;101874.75;;;8.60;100.00
54172;BME280;40076;52.354;4.970;2023-01-30T12:58:20;101885.75;;;8.63;100.00
54172;BME280;40076;52.354;4.970;2023-01-30T13:01:04;101884.19;;;8.57;100.00
54172;BME280;40076;52.354;4.970;2023-01-30T13:09:10;101893.03;;;8.63;100.00
54172;BME280;40076;52.354;4.970;2023-01-30T13:14:49;101900.84;;;8.64;100.00
54172;BME280;40076;52.354;4.970;2023-01-30T13:25:41;101911.06;;;8.67;100.00
54172;BME280;40076;52.354;4.970;2023-01-30T13:28:16;101905.16;;;8.65;100.00
54172;BME280;40076;52.354;4.970;2023-01-30T13:30:43;101904.31;;;8.70;100.00
54172;BME280;40076;52.354;4.970;2023-01-30T13:33:12;101914.00;;;8.71;100.00
54172;BME280;40076;52.354;4.970;2023-01-30T13:35:55;101926.16;;;8.68;100.00
54172;BME280;40076;52.354;4.970;2023-01-30T13:38:24;101915.38;;;8.68;100.00
54172;BME280;40076;52.354;4.970;2023-01-30T13:40:54;101912.97;;;8.67;100.00
54172;BME280;40076;52.354;4.970;2023-01-30T13:43:31;101914.56;;;8.68;100.00
54172;BME280;40076;52.354;4.970;2023-01-30T13:46:05;101931.78;;;8.72;100.00
54172;BME280;40076;52.354;4.970;2023-01-30T13:58:08;101957.09;;;8.71;100.00
54172;BME280;40076;52.354;4.970;2023-01-30T14:11:24;101971.13;;;8.73;100.00
54172;BME280;40076;52.354;4.970;2023-01-30T14:14:02;101972.72;;;8.74;100.00
54172;BME280;40076;52.354;4.970;2023-01-30T14:16:46;101991.06;;;8.77;100.00
54172;BME280;40076;52.354;4.970;2023-01-30T14:27:49;102015.31;;;8.77;100.00
54172;BME280;40076;52.354;4.970;2023-01-30T14:38:48;102043.88;;;8.73;100.00
54172;BME280;40076;52.354;4.970;2023-01-30T14:41:26;102040.13;;;8.69;100.00
54172;BME280;40076;52.354;4.970;2023-01-30T14:43:52;102064.63;;;8.72;100.00
54172;BME280;40076;52.354;4.970;2023-01-30T14:48:53;102080.25;;;8.75;100.00
54172;BME280;40076;52.354;4.970;2023-01-30T14:54:08;102077.28;;;8.72;100.00
54172;BME280;40076;52.354;4.970;2023-01-30T14:56:48;102078.38;;;8.76;100.00
54172;BME280;40076;52.354;4.970;2023-01-30T15:05:07;102101.53;;;8.72;100.00
54172;BME280;40076;52.354;4.970;2023-01-30T15:07:47;102102.09;;;8.74;100.00
54172;BME280;40076;52.354;4.970;2023-01-30T15:24:51;102122.56;;;8.70;100.00
54172;BME280;40076;52.354;4.970;2023-01-30T15:27:29;102135.25;;;8.69;100.00
54172;BME280;40076;52.354;4.970;2023-01-30T15:30:07;102131.22;;;8.67;100.00
54172;BME280;40076;52.354;4.970;2023-01-30T15:32:38;102129.06;;;8.69;100.00
54172;BME280;40076;52.354;4.970;2023-01-30T15:37:52;102160.03;;;8.66;100.00
54172;BME280;40076;52.354;4.970;2023-01-30T15:40:21;102166.78;;;8.64;100.00
54172;BME280;40076;52.354;4.970;2023-01-30T15:42:49;102177.81;;;8.62;100.00
54172;BME280;40076;52.354;4.970;2023-01-30T15:51:20;102173.00;;;8.54;100.00
54172;BME280;40076;52.354;4.970;2023-01-30T15:53:46;102189.19;;;8.54;100.00
54172;BME280;40076;52.354;4.970;2023-01-30T15:56:24;102192.66;;;8.55;100.00
54172;BME280;40076;52.354;4.970;2023-01-30T15:58:51;102197.53;;;8.52;100.00
54172;BME280;40076;52.354;4.970;2023-01-30T16:01:19;102195.63;;;8.48;100.00
54172;BME280;40076;52.354;4.970;2023-01-30T16:03:44;102192.94;;;8.43;100.00
54172;BME280;40076;52.354;4.970;2023-01-30T16:09:04;102208.06;;;8.39;100.00
54172;BME280;40076;52.354;4.970;2023-01-30T16:11:38;102209.91;;;8.33;100.00
54172;BME280;40076;52.354;4.970;2023-01-30T16:14:05;102223.66;;;8.32;100.00
54172;BME280;40076;52.354;4.970;2023-01-30T16:16:31;102219.88;;;8.33;100.00
54172;BME280;40076;52.354;4.970;2023-01-30T16:19:00;102216.38;;;8.32;100.00
54172;BME280;40076;52.354;4.970;2023-01-30T16:21:31;102221.50;;;8.24;100.00
54172;BME280;40076;52.354;4.970;2023-01-30T16:24:13;102223.91;;;8.20;100.00
54172;BME280;40076;52.354;4.970;2023-01-30T16:26:45;102227.41;;;8.21;100.00
54172;BME280;40076;52.354;4.970;2023-01-30T16:29:15;102241.41;;;8.23;100.00
54172;BME280;40076;52.354;4.970;2023-01-30T16:31:44;102253.00;;;8.23;100.00
54172;BME280;40076;52.354;4.970;2023-01-30T16:36:54;102268.31;;;8.12;100.00
54172;BME280;40076;52.354;4.970;2023-01-30T16:39:35;102272.34;;;8.10;100.00
54172;BME280;40076;52.354;4.970;2023-01-30T16:42:03;102279.09;;;8.12;100.00
54172;BME280;40076;52.354;4.970;2023-01-30T16:44:44;102275.84;;;8.10;100.00
54172;BME280;40076;52.354;4.970;2023-01-30T16:47:24;102283.09;;;8.10;100.00
54172;BME280;40076;52.354;4.970;2023-01-30T16:49:51;102287.16;;;8.07;100.00
54172;BME280;40076;52.354;4.970;2023-01-30T16:52:18;102300.59;;;8.02;100.00
54172;BME280;40076;52.354;4.970;2023-01-30T16:54:59;102295.50;;;8.01;100.00
54172;BME280;40076;52.354;4.970;2023-01-30T16:57:45;102298.72;;;8.03;100.00
54172;BME280;40076;52.354;4.970;2023-01-30T17:03:29;102337.72;;;7.95;100.00
54172;BME280;40076;52.354;4.970;2023-01-30T17:05:59;102325.88;;;7.91;100.00
54172;BME280;40076;52.354;4.970;2023-01-30T17:08:48;102325.56;;;7.88;100.00
54172;BME280;40076;52.354;4.970;2023-01-30T17:11:29;102327.75;;;7.86;100.00
54172;BME280;40076;52.354;4.970;2023-01-30T17:14:27;102334.44;;;7.78;100.00
54172;BME280;40076;52.354;4.970;2023-01-30T17:19:25;102325.53;;;7.72;100.00
54172;BME280;40076;52.354;4.970;2023-01-30T17:21:51;102327.66;;;7.70;100.00
54172;BME280;40076;52.354;4.970;2023-01-30T17:24:19;102330.91;;;7.72;100.00
54172;BME280;40076;52.354;4.970;2023-01-30T17:26:51;102331.44;;;7.69;100.00
54172;BME280;40076;52.354;4.970;2023-01-30T17:29:17;102350.81;;;7.71;100.00
54172;BME280;40076;52.354;4.970;2023-01-30T17:31:49;102356.47;;;7.70;100.00
54172;BME280;40076;52.354;4.970;2023-01-30T17:34:15;102363.19;;;7.67;100.00
54172;BME280;40076;52.354;4.970;2023-01-30T17:36:47;102361.81;;;7.65;100.00
54172;BME280;40076;52.354;4.970;2023-01-30T17:39:15;102361.25;;;7.63;100.00
54172;BME280;40076;52.354;4.970;2023-01-30T17:41:44;102358.28;;;7.59;100.00